createdAt,value
2019-01-18T00:00:47.501Z,80.36
2019-01-18T00:01:47.513Z,79.88
2019-01-18T00:02:46.095Z,81.02
2019-01-18T00:03:46.303Z,81.40
2019-01-18T00:04:48.446Z,81.30
2019-01-18T00:05:48.495Z,81.87
2019-01-18T00:06:48.506Z,82.25
2019-01-18T00:07:48.503Z,82.25
2019-01-18T00:08:47.074Z,82.15
2019-01-18T00:09:48.996Z,82.06
2019-01-18T00:10:48.472Z,82.15
2019-01-18T00:11:50.766Z,81.59
2019-01-18T00:12:48.887Z,81.21
2019-01-18T00:13:47.984Z,81.68
2019-01-18T00:16:30.315Z,81.40
2019-01-18T00:17:22.325Z,82.25
2019-01-18T00:18:41.815Z,83.58
2019-01-18T00:19:25.785Z,82.53
2019-01-18T00:20:22.040Z,81.96
2019-01-18T00:21:22.822Z,81.77
2019-01-18T00:22:27.832Z,81.87
2019-01-18T00:23:22.538Z,81.77
2019-01-18T00:24:25.325Z,82.15
2019-01-18T00:25:23.396Z,81.77
2019-01-18T00:26:21.979Z,81.49
2019-01-18T00:27:22.188Z,80.83
2019-01-18T00:28:24.358Z,81.30
2019-01-18T00:29:29.587Z,81.77
2019-01-18T00:30:24.344Z,81.68
2019-01-18T00:31:24.867Z,81.49
2019-01-18T00:32:25.596Z,81.77
2019-01-18T00:33:24.822Z,82.25
2019-01-18T00:34:25.341Z,81.96
2019-01-18T00:35:26.319Z,81.02
2019-01-18T00:36:29.414Z,81.12
2019-01-18T00:37:25.037Z,80.26
2019-01-18T00:38:24.148Z,80.17
2019-01-18T00:39:39.837Z,80.64
2019-01-18T00:40:40.323Z,79.88
2019-01-18T00:41:26.341Z,79.79
2019-01-18T00:42:26.330Z,80.45
2019-01-18T00:43:25.028Z,81.02
2019-01-18T00:44:29.817Z,80.45
2019-01-18T00:45:26.435Z,80.64
2019-01-18T00:46:27.333Z,81.68
2019-01-18T00:47:28.301Z,80.07
2019-01-18T00:48:25.813Z,80.74
2019-01-18T00:49:28.796Z,80.26
2019-01-18T00:50:33.820Z,80.93
2019-01-18T00:51:27.885Z,80.26
2019-01-18T00:52:29.300Z,79.69
2019-01-18T00:53:30.321Z,79.69
2019-01-18T00:54:28.775Z,82.44
2019-01-18T00:55:28.036Z,80.45
2019-01-18T00:56:30.822Z,79.88
2019-01-18T00:57:27.284Z,80.17
2019-01-18T00:58:31.356Z,81.21
2019-01-18T00:59:27.695Z,80.64
2019-01-18T01:00:35.321Z,80.36
2019-01-18T01:01:29.845Z,80.83
2019-01-18T01:02:29.824Z,80.45
2019-01-18T01:03:31.819Z,80.64
2019-01-18T01:04:50.860Z,80.64
2019-01-18T01:05:51.330Z,81.96
2019-01-18T01:06:28.545Z,80.74
2019-01-18T01:07:29.717Z,82.06
2019-01-18T01:08:35.730Z,82.25
2019-01-18T01:09:30.821Z,83.39
2019-01-18T01:10:29.266Z,83.86
2019-01-18T01:11:32.287Z,82.53
2019-01-18T01:12:31.324Z,84.23
2019-01-18T01:13:32.398Z,84.90
2019-01-18T01:14:29.944Z,85.09
2019-01-18T01:15:30.159Z,87.65
2019-01-18T01:16:42.451Z,87.55
2019-01-18T01:17:34.320Z,87.27
2019-01-18T01:18:32.356Z,87.36
2019-01-18T01:19:53.321Z,90.67
2019-01-18T01:20:34.822Z,90.01
2019-01-18T01:21:31.139Z,89.54
2019-01-18T01:22:33.371Z,89.25
2019-01-18T01:23:33.355Z,89.63
2019-01-18T01:24:32.287Z,89.25
2019-01-18T01:25:36.328Z,89.92
2019-01-18T01:26:35.823Z,91.05
2019-01-18T01:27:36.784Z,90.96
2019-01-18T01:28:33.823Z,90.67
2019-01-18T01:29:36.325Z,90.20
2019-01-18T01:30:34.323Z,90.11
2019-01-18T01:31:57.340Z,90.48
2019-01-18T01:32:32.776Z,90.01
2019-01-18T01:33:34.824Z,90.01
2019-01-18T01:34:36.832Z,91.15
2019-01-18T01:35:34.870Z,90.39
2019-01-18T01:36:35.365Z,90.01
2019-01-18T01:37:35.568Z,90.96
2019-01-18T01:38:33.790Z,90.96
2019-01-18T01:39:35.824Z,91.34
2019-01-18T01:40:34.075Z,90.48
2019-01-18T01:41:35.165Z,90.86
2019-01-18T01:42:56.265Z,90.77
2019-01-18T01:43:34.446Z,90.48
2019-01-18T01:44:38.370Z,90.11
2019-01-18T01:45:38.320Z,90.39
2019-01-18T01:46:35.019Z,90.58
2019-01-18T01:47:51.784Z,90.67
2019-01-18T01:48:35.366Z,91.15
2019-01-18T01:49:37.328Z,91.53
2019-01-18T01:50:37.324Z,90.96
2019-01-18T01:51:37.839Z,91.34
2019-01-18T01:52:37.720Z,90.86
2019-01-18T01:53:36.253Z,91.34
2019-01-18T01:54:38.368Z,91.34
2019-01-18T01:55:39.323Z,91.34
2019-01-18T01:56:40.344Z,91.53
2019-01-18T01:57:38.838Z,91.62
2019-01-18T01:58:37.029Z,91.05
2019-01-18T01:59:49.697Z,91.72
2019-01-18T02:00:39.342Z,92.29
2019-01-18T02:01:39.320Z,92.66
2019-01-18T02:02:40.268Z,92.47
2019-01-18T02:03:41.819Z,92.85
2019-01-18T02:04:44.826Z,93.61
2019-01-18T02:05:39.960Z,93.23
2019-01-18T02:06:39.267Z,94.56
2019-01-18T02:07:39.281Z,92.66
2019-01-18T02:08:46.636Z,94.37
2019-01-18T02:09:46.364Z,93.42
2019-01-18T02:10:40.507Z,92.66
2019-01-18T02:11:40.827Z,92.57
2019-01-18T02:12:41.808Z,94.18
2019-01-18T02:13:40.887Z,93.89
2019-01-18T02:14:39.466Z,92.47
2019-01-18T02:15:39.723Z,92.10
2019-01-18T02:16:41.833Z,91.91
2019-01-18T02:17:41.068Z,92.38
2019-01-18T02:18:41.776Z,92.47
2019-01-18T02:19:52.589Z,92.66
2019-01-18T02:20:42.320Z,91.91
2019-01-18T02:21:44.353Z,92.29
2019-01-18T02:22:40.811Z,93.99
2019-01-18T02:23:44.827Z,93.42
2019-01-18T02:24:43.290Z,94.37
2019-01-18T02:25:41.259Z,94.37
2019-01-18T02:26:41.458Z,93.51
2019-01-18T02:29:17.281Z,94.84
2019-01-18T02:30:17.454Z,94.74
2019-01-18T02:31:13.833Z,98.15
2019-01-18T02:32:15.831Z,96.64
2019-01-18T02:33:15.825Z,96.26
2019-01-18T02:34:14.177Z,95.21
2019-01-18T02:35:15.405Z,96.07
2019-01-18T02:36:43.719Z,95.07
2019-01-18T02:37:14.644Z,96.35
2019-01-18T02:38:16.818Z,94.74
2019-01-18T02:39:16.036Z,95.03
2019-01-18T02:40:16.261Z,94.60
2019-01-18T02:41:16.354Z,93.70
2019-01-18T02:42:15.558Z,93.32
2019-01-18T02:43:20.243Z,93.51
2019-01-18T02:44:15.958Z,92.85
2019-01-18T02:45:17.851Z,92.94
2019-01-18T02:46:18.764Z,92.90
2019-01-18T02:47:18.294Z,92.47
2019-01-18T02:48:16.618Z,90.48
2019-01-18T02:49:17.761Z,90.01
2019-01-18T02:50:20.789Z,88.49
2019-01-18T02:51:20.923Z,88.31
2019-01-18T02:52:18.272Z,87.84
2019-01-18T02:53:19.385Z,87.21
2019-01-18T02:54:17.746Z,87.84
2019-01-18T02:55:17.827Z,88.02
2019-01-18T02:56:18.033Z,88.02
2019-01-18T02:57:19.798Z,88.54
2019-01-18T02:58:20.485Z,88.87
2019-01-18T02:59:22.337Z,90.06
2019-01-18T03:00:21.295Z,89.49
2019-01-18T03:01:20.800Z,89.96
2019-01-18T03:02:19.179Z,90.34
2019-01-18T03:03:40.266Z,90.34
2019-01-18T03:04:21.325Z,90.06
2019-01-18T03:05:21.279Z,91.00
2019-01-18T03:06:21.324Z,90.06
2019-01-18T03:07:23.788Z,88.64
2019-01-18T03:08:22.747Z,88.17
2019-01-18T03:09:21.241Z,87.74
2019-01-18T03:10:20.399Z,87.08
2019-01-18T03:11:22.301Z,86.70
2019-01-18T03:12:21.859Z,85.75
2019-01-18T03:13:22.788Z,85.57
2019-01-18T03:14:22.785Z,85.47
2019-01-18T03:15:22.787Z,83.76
2019-01-18T03:16:22.496Z,83.20
2019-01-18T03:17:28.292Z,81.87
2019-01-18T03:18:21.858Z,81.40
2019-01-18T03:19:24.773Z,80.55
2019-01-18T03:20:22.242Z,80.17
2019-01-18T03:21:38.286Z,80.36
2019-01-18T03:22:38.295Z,80.26
2019-01-18T03:23:26.287Z,80.26
2019-01-18T03:24:29.802Z,79.79
2019-01-18T03:25:23.009Z,79.22
2019-01-18T03:26:23.244Z,78.75
2019-01-18T03:27:34.500Z,78.46
2019-01-18T03:28:25.291Z,77.99
2019-01-18T03:29:23.742Z,77.51
2019-01-18T03:30:31.790Z,78.37
2019-01-18T03:31:25.832Z,78.18
2019-01-18T03:32:24.400Z,78.46
2019-01-18T03:33:26.293Z,92.66
2019-01-18T03:34:28.285Z,91.91
2019-01-18T03:35:26.859Z,92.47
2019-01-18T03:36:26.126Z,92.00
2019-01-18T03:37:27.236Z,94.46
2019-01-18T03:38:25.556Z,99.99
2019-01-18T03:39:33.319Z,99.29
2019-01-18T03:40:25.821Z,98.72
2019-01-18T03:41:48.835Z,98.82
2019-01-18T03:42:27.811Z,99.99
2019-01-18T03:43:26.257Z,98.53
2019-01-18T03:44:30.288Z,97.87
2019-01-18T03:45:28.286Z,99.99
2019-01-18T03:46:28.285Z,99.99
2019-01-18T03:47:26.746Z,99.99
2019-01-18T03:48:28.796Z,99.99
2019-01-18T03:49:29.242Z,99.99
2019-01-18T03:50:29.287Z,99.99
2019-01-18T03:51:35.326Z,99.99
2019-01-18T03:52:28.640Z,99.99
2019-01-18T03:53:32.255Z,99.99
2019-01-18T03:54:31.793Z,99.99
2019-01-18T03:55:27.987Z,99.99
2019-01-18T03:56:28.191Z,99.99
2019-01-18T03:57:30.297Z,99.99
2019-01-18T03:58:32.289Z,99.99
2019-01-18T03:59:28.832Z,99.99
2019-01-18T04:00:29.038Z,99.99
2019-01-18T04:01:31.239Z,99.99
2019-01-18T04:02:30.447Z,99.99
2019-01-18T04:03:29.653Z,99.99
2019-01-18T04:04:33.797Z,99.99
2019-01-18T04:05:30.020Z,99.99
2019-01-18T04:06:31.795Z,99.99
2019-01-18T04:07:30.237Z,99.99
2019-01-18T04:08:30.443Z,99.99
2019-01-18T04:09:30.663Z,99.99
2019-01-18T04:10:32.287Z,99.99
2019-01-18T04:11:30.914Z,99.99
2019-01-18T04:12:32.790Z,99.99
2019-01-18T04:13:34.791Z,99.99
2019-01-18T04:14:33.314Z,99.99
2019-01-18T04:15:31.539Z,99.99
2019-01-18T04:16:31.626Z,99.99
2019-01-18T04:17:35.788Z,99.99
2019-01-18T04:18:31.990Z,99.99
2019-01-18T04:19:33.789Z,99.99
2019-01-18T04:20:34.305Z,99.99
2019-01-18T04:21:33.504Z,99.99
2019-01-18T04:22:40.304Z,99.99
2019-01-18T04:23:34.837Z,99.99
2019-01-18T04:24:36.789Z,99.99
2019-01-18T04:25:34.392Z,99.99
2019-01-18T04:26:35.744Z,99.99
2019-01-18T04:27:56.323Z,99.99
2019-01-18T04:29:03.373Z,99.99
2019-01-18T04:29:34.017Z,99.99
2019-01-18T04:30:35.752Z,99.99
2019-01-18T04:31:35.792Z,99.99
2019-01-18T04:32:34.395Z,99.99
2019-01-18T04:33:38.287Z,99.99
2019-01-18T04:34:37.246Z,99.99
2019-01-18T04:35:38.242Z,99.99
2019-01-18T04:36:35.164Z,99.99
2019-01-18T04:37:36.787Z,99.99
2019-01-18T04:38:41.793Z,99.99
2019-01-18T04:39:35.368Z,99.99
2019-01-18T04:40:37.236Z,99.99
2019-01-18T04:41:37.294Z,99.99
2019-01-18T04:42:37.760Z,99.99
2019-01-18T04:43:37.820Z,99.99
2019-01-18T04:44:38.236Z,99.99
2019-01-18T04:45:37.385Z,99.99
2019-01-18T04:46:39.246Z,99.99
2019-01-18T04:47:36.715Z,99.99
2019-01-18T04:48:40.827Z,99.99
2019-01-18T04:49:58.017Z,99.99
2019-01-18T04:50:38.793Z,99.99
2019-01-18T04:51:39.263Z,99.99
2019-01-18T04:52:37.587Z,99.99
2019-01-18T04:53:50.260Z,99.99
2019-01-18T04:54:39.793Z,99.99
2019-01-18T04:55:40.749Z,99.99
2019-01-18T04:56:39.287Z,99.99
2019-01-18T04:57:40.287Z,99.99
2019-01-18T04:58:42.322Z,99.99
2019-01-18T05:00:01.302Z,99.99
2019-01-18T05:00:41.102Z,99.99
2019-01-18T05:01:40.211Z,99.99
2019-01-18T05:02:43.639Z,99.99
2019-01-18T05:03:41.250Z,99.99
2019-01-18T05:04:39.751Z,99.99
2019-01-18T05:05:41.201Z,99.99
2019-01-18T05:06:46.795Z,99.99
2019-01-18T05:09:15.250Z,99.99
2019-01-18T05:10:12.822Z,99.99
2019-01-18T05:11:14.803Z,99.99
2019-01-18T05:12:17.595Z,99.99
2019-01-18T05:13:13.429Z,99.99
2019-01-18T05:14:13.525Z,99.99
2019-01-18T05:15:15.250Z,99.99
2019-01-18T05:16:14.717Z,99.99
2019-01-18T05:17:16.199Z,99.99
2019-01-18T05:18:16.001Z,99.99
2019-01-18T05:19:16.244Z,99.99
2019-01-18T05:20:14.436Z,99.99
2019-01-18T05:21:18.297Z,99.99
2019-01-18T05:22:16.787Z,99.99
2019-01-18T05:23:15.069Z,99.99
2019-01-18T05:24:16.742Z,99.99
2019-01-18T05:25:19.247Z,99.99
2019-01-18T05:26:15.457Z,99.99
2019-01-18T05:27:15.645Z,99.99
2019-01-18T05:28:19.198Z,99.99
2019-01-18T05:29:31.747Z,99.99
2019-01-18T05:30:37.181Z,99.99
2019-01-18T05:31:18.286Z,99.99
2019-01-18T05:32:20.269Z,99.99
2019-01-18T05:33:21.545Z,99.99
2019-01-18T05:34:39.794Z,99.99
2019-01-18T05:35:18.759Z,99.99
2019-01-18T05:36:24.751Z,99.99
2019-01-18T05:37:41.196Z,99.99
2019-01-18T05:38:19.249Z,99.99
2019-01-18T05:39:33.265Z,99.99
2019-01-18T05:40:20.962Z,99.99
2019-01-18T05:41:19.080Z,99.99
2019-01-18T05:42:19.175Z,99.99
2019-01-18T05:43:20.243Z,99.99
2019-01-18T05:44:19.610Z,99.99
2019-01-18T05:45:22.814Z,99.99
2019-01-18T05:46:20.904Z,99.99
2019-01-18T05:47:21.717Z,99.99
2019-01-18T05:48:26.791Z,99.99
2019-01-18T05:49:21.246Z,99.99
2019-01-18T05:50:21.287Z,99.99
2019-01-18T05:51:20.630Z,99.99
2019-01-18T05:52:19.839Z,99.99
2019-01-18T05:53:22.704Z,99.99
2019-01-18T05:54:21.798Z,99.99
2019-01-18T05:55:24.261Z,99.99
2019-01-18T05:56:21.206Z,99.99
2019-01-18T05:57:21.182Z,99.99
2019-01-18T05:58:27.765Z,99.99
2019-01-18T05:59:24.207Z,99.99
2019-01-18T06:00:22.743Z,99.99
2019-01-18T06:01:23.338Z,99.99
2019-01-18T06:02:22.710Z,99.99
2019-01-18T06:03:23.249Z,99.99
2019-01-18T06:04:29.799Z,99.99
2019-01-18T06:05:23.744Z,99.99
2019-01-18T06:06:23.754Z,99.99
2019-01-18T06:07:22.203Z,99.99
2019-01-18T06:08:26.247Z,99.99
2019-01-18T06:09:39.731Z,99.99
2019-01-18T06:10:24.245Z,99.99
2019-01-18T06:11:22.833Z,99.99
2019-01-18T06:12:24.743Z,99.99
2019-01-18T06:13:27.531Z,99.99
2019-01-18T06:14:28.199Z,99.99
2019-01-18T06:15:23.561Z,99.99
2019-01-18T06:16:23.779Z,99.99
2019-01-18T06:17:25.928Z,99.99
2019-01-18T06:18:24.194Z,99.99
2019-01-18T06:19:28.604Z,99.99
2019-01-18T06:20:28.562Z,99.99
2019-01-18T06:21:41.235Z,99.99
2019-01-18T06:22:27.295Z,99.99
2019-01-18T06:23:26.247Z,99.99
2019-01-18T06:24:29.560Z,99.99
2019-01-18T06:25:25.440Z,99.99
2019-01-18T06:26:26.574Z,99.99
2019-01-18T06:27:26.218Z,99.99
2019-01-18T06:28:27.703Z,99.99
2019-01-18T06:29:27.744Z,99.99
2019-01-18T06:30:33.761Z,99.38
2019-01-18T06:31:28.261Z,98.14
2019-01-18T06:32:26.457Z,98.62
2019-01-18T06:33:26.664Z,99.04
2019-01-18T06:34:30.758Z,98.38
2019-01-18T06:35:28.305Z,97.91
2019-01-18T06:36:31.281Z,97.15
2019-01-18T06:37:34.305Z,96.11
2019-01-18T06:38:29.274Z,94.98
2019-01-18T06:39:27.652Z,95.07
2019-01-18T06:40:34.897Z,94.98
2019-01-18T06:41:27.902Z,94.60
2019-01-18T06:42:52.960Z,93.94
2019-01-18T06:43:35.837Z,94.22
2019-01-18T06:44:28.334Z,94.41
2019-01-18T06:45:31.241Z,93.84
2019-01-18T06:46:32.202Z,93.75
2019-01-18T06:47:32.697Z,93.84
2019-01-18T06:48:32.749Z,94.03
2019-01-18T06:49:29.199Z,93.47
2019-01-18T06:50:33.243Z,92.80
2019-01-18T06:51:36.402Z,92.61
2019-01-18T06:52:29.799Z,92.61
2019-01-18T06:53:38.721Z,93.09
2019-01-18T06:54:45.748Z,92.24
2019-01-18T06:55:30.330Z,92.71
2019-01-18T06:56:35.907Z,91.77
2019-01-18T06:57:32.302Z,92.61
2019-01-18T06:58:30.844Z,92.05
2019-01-18T06:59:37.748Z,92.33
2019-01-18T07:00:34.743Z,91.77
2019-01-18T07:01:31.321Z,92.33
2019-01-18T07:02:31.448Z,92.33
2019-01-18T07:03:33.286Z,91.58
2019-01-18T07:04:33.711Z,91.39
2019-01-18T07:05:48.704Z,91.77
2019-01-18T07:06:32.708Z,91.58
2019-01-18T07:07:35.202Z,91.77
2019-01-18T07:08:34.202Z,91.96
2019-01-18T07:09:40.242Z,92.71
2019-01-18T07:10:32.697Z,92.14
2019-01-18T07:11:37.378Z,92.33
2019-01-18T07:12:33.031Z,92.33
2019-01-18T07:13:35.701Z,92.33
2019-01-18T07:14:35.251Z,92.33
2019-01-18T07:15:35.287Z,92.24
2019-01-18T07:16:36.199Z,92.71
2019-01-18T07:17:34.935Z,93.28
2019-01-18T07:18:47.697Z,93.37
2019-01-18T07:19:46.260Z,93.66
2019-01-18T07:20:42.241Z,94.13
2019-01-18T07:21:36.276Z,94.22
2019-01-18T07:22:38.747Z,94.60
2019-01-18T07:24:13.713Z,94.22
2019-01-18T07:24:35.134Z,94.41
2019-01-18T07:25:38.071Z,94.03
2019-01-18T07:26:42.586Z,93.28
2019-01-18T07:29:11.406Z,91.39
2019-01-18T07:30:08.698Z,89.31
2019-01-18T07:31:15.226Z,88.65
2019-01-18T07:32:31.845Z,88.65
2019-01-18T07:33:33.006Z,88.17
2019-01-18T07:34:42.263Z,88.74
2019-01-18T07:35:11.287Z,90.16
2019-01-18T07:36:21.750Z,90.35
2019-01-18T07:37:13.267Z,90.63
2019-01-18T07:38:10.801Z,90.25
2019-01-18T07:39:25.467Z,89.50
2019-01-18T07:40:09.357Z,89.97
2019-01-18T07:41:11.346Z,90.06
2019-01-18T07:42:10.192Z,90.54
2019-01-18T07:43:09.811Z,89.40
2019-01-18T07:44:10.028Z,89.31
2019-01-18T07:45:14.821Z,89.40
2019-01-18T07:46:11.747Z,90.35
2019-01-18T07:47:12.312Z,90.25
2019-01-18T07:48:11.710Z,89.78
2019-01-18T07:49:10.917Z,89.40
2019-01-18T07:50:19.932Z,89.22
2019-01-18T07:51:14.270Z,89.59
2019-01-18T07:52:13.317Z,90.06
2019-01-18T07:53:27.323Z,89.87
2019-01-18T07:54:13.795Z,90.35
2019-01-18T07:55:20.456Z,89.22
2019-01-18T07:56:14.524Z,89.22
2019-01-18T07:57:15.792Z,90.16
2019-01-18T07:58:14.845Z,90.16
2019-01-18T07:59:12.582Z,90.11
2019-01-18T08:00:16.746Z,90.11
2019-01-18T08:01:14.794Z,89.26
2019-01-18T08:02:13.112Z,89.26
2019-01-18T08:03:13.549Z,88.88
2019-01-18T08:04:16.014Z,89.45
2019-01-18T08:05:15.248Z,89.36
2019-01-18T08:06:18.076Z,90.01
2019-01-18T08:07:35.887Z,91.81
2019-01-18T08:08:18.914Z,92.00
2019-01-18T08:09:14.770Z,91.81
2019-01-18T08:10:16.292Z,92.38
2019-01-18T08:11:19.787Z,92.85
2019-01-18T08:12:14.729Z,93.32
2019-01-18T08:13:14.925Z,93.13
2019-01-18T08:14:16.183Z,94.18
2019-01-18T08:15:17.351Z,95.03
2019-01-18T08:16:15.492Z,95.03
2019-01-18T08:17:15.731Z,96.02
2019-01-18T08:18:16.815Z,96.02
2019-01-18T08:19:23.786Z,97.44
2019-01-18T08:20:18.786Z,96.97
2019-01-18T08:21:20.435Z,98.29
2019-01-18T08:22:19.745Z,99.05
2019-01-18T08:23:18.333Z,99.43
2019-01-18T08:24:24.807Z,99.52
2019-01-18T08:25:17.052Z,99.99
2019-01-18T08:26:19.031Z,99.99
2019-01-18T08:27:17.348Z,99.99
2019-01-18T08:28:19.308Z,99.99
2019-01-18T08:29:19.296Z,99.99
2019-01-18T08:30:25.308Z,99.99
2019-01-18T08:31:18.176Z,99.99
2019-01-18T08:32:19.815Z,99.99
2019-01-18T08:33:18.199Z,99.99
2019-01-18T08:34:19.795Z,99.99
2019-01-18T08:35:18.495Z,99.99
2019-01-18T08:36:20.293Z,99.99
2019-01-18T08:37:22.839Z,99.99
2019-01-18T08:38:20.778Z,99.99
2019-01-18T08:39:20.796Z,99.99
2019-01-18T08:40:21.291Z,99.99
2019-01-18T08:41:19.507Z,99.99
2019-01-18T08:42:20.713Z,99.99
2019-01-18T08:43:20.928Z,99.99
2019-01-18T08:44:21.797Z,97.55
2019-01-18T08:45:21.830Z,94.32
2019-01-18T08:46:20.406Z,93.51
2019-01-18T08:47:20.658Z,92.13
2019-01-18T08:48:22.324Z,89.99
2019-01-18T08:49:20.916Z,84.99
2019-01-18T08:50:21.124Z,79.85
2019-01-18T08:51:21.344Z,77.37
2019-01-18T08:52:22.568Z,74.52
2019-01-18T08:53:21.687Z,72.94
2019-01-18T08:54:21.936Z,71.28
2019-01-18T08:55:23.827Z,71.72
2019-01-18T08:56:22.338Z,74.62
2019-01-18T08:57:25.355Z,73.41
2019-01-18T08:58:24.329Z,70.52
2019-01-18T08:59:22.794Z,70.72
2019-01-18T09:00:24.819Z,72.56
2019-01-18T09:01:35.530Z,71.17
2019-01-18T09:02:25.299Z,68.30
2019-01-18T09:03:28.325Z,67.39
2019-01-18T09:04:23.705Z,67.29
2019-01-18T09:05:47.460Z,66.38
2019-01-18T09:06:25.799Z,64.50
2019-01-18T09:07:46.296Z,63.83
2019-01-18T09:08:24.373Z,63.29
2019-01-18T09:09:24.582Z,61.69
2019-01-18T09:10:29.838Z,58.80
2019-01-18T09:11:25.384Z,59.85
2019-01-18T09:12:26.825Z,60.36
2019-01-18T09:13:25.309Z,60.17
2019-01-18T09:14:26.250Z,58.16
2019-01-18T09:15:27.272Z,56.77
2019-01-18T09:16:34.768Z,57.92
2019-01-18T09:17:34.252Z,58.87
2019-01-18T09:18:28.749Z,59.73
2019-01-18T09:19:27.749Z,60.21
2019-01-18T09:20:27.494Z,59.25
2019-01-18T09:21:27.826Z,58.87
2019-01-18T09:22:26.952Z,58.29
2019-01-18T09:23:27.617Z,57.34
2019-01-18T09:24:28.352Z,58.39
2019-01-18T09:25:35.249Z,59.16
2019-01-18T09:26:29.328Z,59.85
2019-01-18T09:27:32.354Z,58.76
2019-01-18T09:28:30.858Z,57.14
2019-01-18T09:29:28.331Z,55.35
2019-01-18T09:30:30.531Z,53.25
2019-01-18T09:31:28.773Z,52.77
2019-01-18T09:32:30.801Z,52.96
2019-01-18T09:33:29.534Z,52.89
2019-01-18T09:34:32.291Z,52.61
2019-01-18T09:35:34.277Z,51.75
2019-01-18T09:36:31.807Z,52.03
2019-01-18T09:37:31.442Z,51.36
2019-01-18T09:38:31.175Z,51.39
2019-01-18T09:39:33.280Z,51.42
2019-01-18T09:40:33.076Z,50.41
2019-01-18T09:41:34.335Z,50.21
2019-01-18T09:42:31.039Z,51.56
2019-01-18T09:43:32.157Z,51.15
2019-01-18T09:44:34.289Z,51.05
2019-01-18T09:45:35.311Z,51.15
2019-01-18T09:46:47.306Z,51.34
2019-01-18T09:47:35.803Z,50.76
2019-01-18T09:48:33.803Z,50.57
2019-01-18T09:49:32.271Z,51.53
2019-01-18T09:50:32.548Z,52.61
2019-01-18T09:51:32.828Z,50.50
2019-01-18T09:52:36.800Z,50.17
2019-01-18T09:53:37.143Z,49.60
2019-01-18T09:54:34.853Z,48.85
2019-01-18T09:55:34.702Z,47.49
2019-01-18T09:56:41.157Z,47.42
2019-01-18T09:57:36.763Z,47.06
2019-01-18T09:58:37.811Z,45.79
2019-01-18T09:59:37.801Z,45.90
2019-01-18T10:00:35.267Z,45.31
2019-01-18T10:01:36.335Z,45.72
2019-01-18T10:02:36.834Z,44.95
2019-01-18T10:03:36.853Z,45.23
2019-01-18T10:04:43.303Z,45.02
2019-01-18T10:05:35.515Z,43.76
2019-01-18T10:06:37.305Z,45.19
2019-01-18T10:07:39.839Z,46.05
2019-01-18T10:08:38.585Z,46.51
2019-01-18T10:09:37.263Z,46.82
2019-01-18T10:10:36.512Z,47.42
2019-01-18T10:11:41.055Z,47.22
2019-01-18T10:12:40.278Z,45.90
2019-01-18T10:13:39.796Z,45.04
2019-01-18T10:14:38.816Z,44.54
2019-01-18T10:15:38.523Z,45.81
2019-01-18T10:16:38.803Z,45.62
2019-01-18T10:17:40.357Z,45.23
2019-01-18T10:18:37.963Z,43.30
2019-01-18T10:19:39.838Z,43.37
2019-01-18T10:20:38.458Z,45.12
2019-01-18T10:21:42.968Z,45.07
2019-01-18T10:22:50.461Z,45.96
2019-01-18T10:23:43.754Z,47.66
2019-01-18T10:24:43.758Z,50.00
2019-01-18T10:26:04.089Z,50.19
2019-01-18T10:26:41.309Z,50.12
2019-01-18T10:27:41.472Z,50.26
2019-01-18T10:28:41.307Z,49.81
2019-01-18T10:29:41.001Z,46.86
2019-01-18T10:30:48.357Z,45.14
2019-01-18T10:31:43.255Z,44.95
2019-01-18T10:32:43.760Z,44.37
2019-01-18T10:33:42.370Z,45.23
2019-01-18T10:34:41.916Z,45.28
2019-01-18T10:35:44.829Z,43.94
2019-01-18T10:36:43.270Z,42.11
2019-01-18T10:37:43.766Z,42.10
2019-01-18T10:38:43.309Z,42.60
2019-01-18T10:39:42.766Z,42.10
2019-01-18T10:41:06.261Z,42.29
2019-01-18T10:41:46.485Z,42.96
2019-01-18T10:42:43.792Z,43.07
2019-01-18T10:43:46.333Z,39.31
2019-01-18T10:44:51.256Z,39.41
2019-01-18T10:45:42.979Z,37.66
2019-01-18T10:46:45.868Z,38.35
2019-01-18T10:47:45.301Z,39.72
2019-01-18T10:48:46.272Z,39.22
2019-01-18T10:49:47.976Z,37.84
2019-01-18T10:50:47.760Z,39.65
2019-01-18T10:52:07.289Z,41.38
2019-01-18T10:54:25.656Z,43.30
2019-01-18T10:55:19.248Z,42.57
2019-01-18T10:56:23.291Z,42.47
2019-01-18T10:57:18.952Z,41.31
2019-01-18T10:58:25.086Z,42.51
2019-01-18T10:59:20.433Z,45.05
2019-01-18T11:00:41.930Z,46.44
2019-01-18T11:01:24.408Z,44.26
2019-01-18T11:02:20.863Z,44.01
2019-01-18T11:03:26.864Z,42.79
2019-01-18T11:04:20.886Z,41.08
2019-01-18T11:05:21.397Z,40.25
2019-01-18T11:06:52.343Z,37.99
2019-01-18T11:07:23.625Z,37.38
2019-01-18T11:08:21.410Z,39.22
2019-01-18T11:09:18.745Z,36.61
2019-01-18T11:10:21.346Z,36.82
2019-01-18T11:11:20.847Z,37.36
2019-01-18T11:14:00.713Z,42.05
2019-01-18T11:14:55.382Z,41.69
2019-01-18T11:15:56.366Z,40.38
2019-01-18T11:16:59.895Z,41.20
2019-01-18T11:18:16.896Z,42.76
2019-01-18T11:18:55.734Z,43.80
2019-01-18T11:19:56.878Z,45.07
2019-01-18T11:20:56.849Z,44.33
2019-01-18T11:22:01.327Z,43.85
2019-01-18T11:23:03.568Z,44.13
2019-01-18T11:23:55.033Z,43.95
2019-01-18T11:24:55.043Z,42.70
2019-01-18T11:25:59.025Z,42.58
2019-01-18T11:26:56.495Z,42.22
2019-01-18T11:28:06.054Z,42.13
2019-01-18T11:29:01.957Z,42.70
2019-01-18T11:30:16.994Z,42.14
2019-01-18T11:31:02.054Z,43.95
2019-01-18T11:32:18.592Z,44.81
2019-01-18T11:32:56.545Z,45.87
2019-01-18T11:33:58.559Z,46.37
2019-01-18T11:34:58.454Z,44.50
2019-01-18T11:36:02.359Z,42.76
2019-01-18T11:37:05.606Z,42.97
2019-01-18T11:39:45.465Z,42.90
2019-01-18T11:46:20.830Z,38.35
2019-01-18T11:47:19.635Z,38.74
2019-01-18T11:48:19.538Z,38.54
2019-01-18T11:49:23.963Z,38.74
2019-01-18T11:50:38.097Z,37.41
2019-01-18T11:51:22.074Z,39.54
2019-01-18T11:52:19.531Z,40.04
2019-01-18T11:53:17.081Z,40.02
2019-01-18T11:54:19.531Z,40.17
2019-01-18T11:58:28.740Z,44.76
2019-01-18T11:59:27.355Z,44.36
2019-01-18T12:00:24.465Z,44.38
2019-01-18T12:01:24.953Z,43.84
2019-01-18T12:02:23.074Z,45.25
2019-01-18T12:03:27.489Z,45.82
2019-01-18T12:04:26.370Z,46.97
2019-01-18T12:05:39.115Z,47.08
2019-01-18T12:06:26.892Z,46.03
2019-01-18T12:07:26.274Z,44.98
2019-01-18T12:08:22.471Z,45.94
2019-01-18T12:09:23.649Z,46.22
2019-01-18T12:10:39.421Z,45.75
2019-01-18T12:11:45.578Z,45.39
2019-01-18T12:12:25.449Z,45.98
2019-01-18T12:13:26.111Z,44.91
2019-01-18T12:14:25.169Z,44.31
2019-01-18T12:15:26.616Z,44.89
2019-01-18T12:16:25.672Z,44.12
2019-01-18T12:17:24.032Z,45.29
2019-01-18T12:18:31.240Z,44.22
2019-01-18T12:19:47.081Z,44.31
2019-01-18T12:20:46.695Z,45.46
2019-01-18T12:23:35.222Z,44.55
2019-01-18T12:24:10.389Z,44.95
2019-01-18T12:25:06.088Z,43.71
2019-01-18T12:26:15.810Z,43.04
2019-01-18T12:27:15.427Z,41.80
2019-01-18T12:28:02.116Z,42.20
2019-01-18T12:29:23.340Z,41.51
2019-01-18T12:30:02.687Z,41.89
2019-01-18T12:31:24.656Z,41.80
2019-01-18T12:32:05.506Z,41.49
2019-01-18T12:34:03.610Z,41.56
2019-01-18T12:35:24.872Z,42.61
2019-01-18T12:36:03.398Z,42.90
2019-01-18T12:37:05.919Z,43.55
2019-01-18T12:38:05.755Z,43.86
2019-01-18T12:39:19.536Z,42.81
2019-01-18T12:40:06.226Z,43.66
2019-01-18T12:41:05.058Z,42.02
2019-01-18T12:42:03.807Z,42.11
2019-01-18T12:43:06.994Z,42.86
2019-01-18T12:44:25.672Z,43.93
2019-01-18T12:45:06.872Z,43.62
2019-01-18T12:46:07.829Z,44.01
2019-01-18T12:47:08.768Z,44.96
2019-01-18T12:48:08.324Z,45.63
2019-01-18T12:49:28.391Z,45.65
2019-01-18T12:50:06.772Z,45.08
2019-01-18T12:51:06.368Z,42.81
2019-01-18T12:52:05.847Z,42.81
2019-01-18T12:53:07.895Z,42.33
2019-01-18T12:54:09.877Z,41.75
2019-01-18T12:55:29.350Z,41.43
2019-01-18T12:56:09.364Z,42.10
2019-01-18T12:57:08.909Z,42.46
2019-01-18T12:58:17.756Z,42.77
2019-01-18T12:59:07.893Z,43.46
2019-01-18T13:00:09.325Z,43.84
2019-01-18T13:01:09.905Z,42.71
2019-01-18T13:02:35.177Z,42.61
2019-01-18T13:03:10.871Z,42.52
2019-01-18T13:04:09.320Z,41.83
2019-01-18T13:05:10.674Z,41.95
2019-01-18T13:06:22.854Z,42.21
2019-01-18T13:07:23.573Z,42.96
2019-01-18T13:08:09.902Z,44.43
2019-01-18T13:09:13.314Z,42.55
2019-01-18T13:10:13.065Z,42.65
2019-01-18T13:11:12.321Z,43.43
2019-01-18T13:12:11.034Z,43.62
2019-01-18T13:13:11.037Z,43.91
2019-01-18T13:14:09.000Z,43.41
2019-01-18T13:17:18.636Z,46.37
2019-01-18T13:17:53.415Z,46.25
2019-01-18T13:19:00.896Z,46.23